Terminal Aerodrome Forecast
Issued by NWS Blacksburg, VA

Home | Current Version | Previous Version | Text Only | Print | Product List | Glossary On
Versions: 1 2 3 4 5 6 7 8 9 10 11 12 13 14 15 16 17 18 19 20 21 22 23 24
000
FTUS41 KRNK 051721
TAFBLF
TAF
KBLF 051721Z 0518/0618 26004KT P6SM SCT060 BKN100
     FM052000 26005KT P6SM VCSH BKN060
     FM060000 23004KT P6SM BKN100
     FM061600 34005KT P6SM BKN050=

USA.gov is the U.S. government's official web portal to all federal, state and local government web resources and services.